Time;durP1;ratioP1;P1;durP2;ratioP2;P2;SDS_P1;SDS_P2;PMS_P1;PMS_P2;Temp;Humidity;BMP_temperature;BMP_pressure;BME280_temperature;BME280_humidity;BME280_pressure;Samples;Min_cycle;Max_cycle;Signal;HPM_P1;HPM_P2
2022/04/18 00:00:19;;;;;;;;;;;;;;;0.66;48.14;99534.72;5089155;28;19924;-66
2022/04/18 00:02:44;;;;;;;;;;;;;;;0.64;47.92;99534.06;5095901;28;20057;-65
2022/04/18 00:05:10;;;;;;;;;;;;;;;0.63;48.29;99543.69;5112197;28;19959;-67
2022/04/18 00:07:35;;;;;;;;;;;;;;;0.62;47.77;99541.28;5114044;28;19935;-67
2022/04/18 00:10:01;;;;;;;;;;;;;;;0.60;47.85;99540.63;5115216;28;19969;-67
2022/04/18 00:12:28;;;;;;;;;;;;;;;0.59;48.41;99538.97;5115231;28;19973;-65
2022/04/18 00:14:54;;;;;;;;;;;;;;;0.55;48.27;99530.69;5088269;28;19974;-66
2022/04/18 00:17:19;;;;;;;;;;;;;;;0.55;48.46;99532.47;5077076;28;19972;-66
2022/04/18 00:19:45;;;;;;;;;;;;;;;0.52;48.97;99535.44;5115059;28;19967;-66
2022/04/18 00:22:10;;;;;;;;;;;;;;;0.45;48.87;99533.50;5113434;28;19924;-66
2022/04/18 00:24:35;;;;;;;;;;;;;;;0.38;48.77;99522.13;5115227;28;19928;-68
2022/04/18 00:27:01;;;;;;;;;;;;;;;0.44;48.69;99550.13;5115321;28;20010;-66
2022/04/18 00:29:27;;;;;;;;;;;;;;;0.43;48.96;99543.28;5101260;28;20478;-67
2022/04/18 00:31:52;;;;;;;;;;;;;;;0.42;49.17;99546.06;5094796;28;19920;-66
2022/04/18 00:34:18;;;;;;;;;;;;;;;0.41;49.26;99544.41;5090051;28;19961;-67
2022/04/18 00:36:44;;;;;;;;;;;;;;;0.39;49.19;99549.81;5072997;28;20374;-65
2022/04/18 00:39:10;;;;;;;;;;;;;;;0.36;49.20;99549.34;5107764;28;20104;-67
2022/04/18 00:41:36;;;;;;;;;;;;;;;0.32;49.13;99551.44;5114282;28;20058;-66
2022/04/18 00:44:02;;;;;;;;;;;;;;;0.30;49.06;99548.22;5103286;28;20028;-65
2022/04/18 00:46:28;;;;;;;;;;;;;;;0.30;49.44;99552.63;5094428;28;19959;-66
2022/04/18 00:48:53;;;;;;;;;;;;;;;0.26;49.29;99546.09;5106428;28;20419;-66
2022/04/18 00:51:23;;;;;;;;;;;;;;;0.23;49.67;99540.22;5113286;28;19931;-66
2022/04/18 00:53:52;;;;;;;;;;;;;;;0.21;49.41;99542.22;5106495;28;19927;-66
2022/04/18 00:56:18;;;;;;;;;;;;;;;0.19;49.63;99540.75;5095949;28;19924;-65
2022/04/18 00:58:43;;;;;;;;;;;;;;;0.13;49.51;99537.00;5098692;28;20338;-65
2022/04/18 01:01:09;;;;;;;;;;;;;;;0.05;50.34;99550.03;5113041;28;19924;-65
2022/04/18 01:03:35;;;;;;;;;;;;;;;0.06;50.21;99553.47;5112891;28;20034;-66
2022/04/18 01:06:01;;;;;;;;;;;;;;;0.05;50.57;99552.66;5094964;28;20034;-65
2022/04/18 01:08:28;;;;;;;;;;;;;;;0.03;50.75;99541.59;5103357;28;19928;-66
2022/04/18 01:10:53;;;;;;;;;;;;;;;-0.01;50.93;99543.69;5105806;28;19924;-66
2022/04/18 01:13:22;;;;;;;;;;;;;;;-0.03;51.18;99542.22;5101619;28;19973;-66
2022/04/18 01:15:54;;;;;;;;;;;;;;;-0.09;51.21;99532.47;5072069;28;19924;-65
2022/04/18 01:18:40;;;;;;;;;;;;;;;-0.13;51.40;99533.78;5074487;28;20283;-65
2022/04/18 01:21:24;;;;;;;;;;;;;;;-0.15;51.87;99540.94;5073510;28;19986;-66
2022/04/18 01:28:58;;;;;;;;;;;;;;;-0.17;51.85;99533.31;5103666;28;20388;-66
2022/04/18 01:29:39;;;;;;;;;;;;;;;-0.24;52.28;99527.94;5072082;28;19929;-66
2022/04/18 01:32:05;;;;;;;;;;;;;;;-0.24;52.53;99527.94;5057745;28;19932;-65
2022/04/18 01:34:31;;;;;;;;;;;;;;;-0.26;52.56;99531.69;5111656;28;19928;-66
2022/04/18 01:36:57;;;;;;;;;;;;;;;-0.29;52.27;99530.22;5100972;28;19928;-65
2022/04/18 01:39:22;;;;;;;;;;;;;;;-0.31;52.18;99515.72;5112006;28;20072;-66
2022/04/18 01:41:48;;;;;;;;;;;;;;;-0.32;52.85;99516.72;5092325;28;20385;-66
2022/04/18 01:44:14;;;;;;;;;;;;;;;-0.35;52.78;99517.84;5092104;28;19927;-66
2022/04/18 01:46:40;;;;;;;;;;;;;;;-0.41;53.11;99517.69;5074484;28;20416;-65
2022/04/18 01:49:07;;;;;;;;;;;;;;;-0.42;52.98;99521.28;5104354;28;20404;-66
2022/04/18 01:51:33;;;;;;;;;;;;;;;-0.41;53.16;99513.31;5104984;28;19963;-66
2022/04/18 01:54:03;;;;;;;;;;;;;;;-0.42;53.30;99518.66;5107316;28;19931;-66
2022/04/18 01:56:29;;;;;;;;;;;;;;;-0.46;53.30;99519.00;5111924;28;19924;-67
2022/04/18 01:58:55;;;;;;;;;;;;;;;-0.49;53.43;99518.50;5094712;28;19928;-67
2022/04/18 02:01:21;;;;;;;;;;;;;;;-0.51;53.85;99529.06;5096024;28;19931;-66
2022/04/18 02:03:47;;;;;;;;;;;;;;;-0.53;53.51;99531.03;5088131;28;20011;-66
2022/04/18 02:06:14;;;;;;;;;;;;;;;-0.51;53.81;99523.88;5111769;28;19928;-66
2022/04/18 02:08:40;;;;;;;;;;;;;;;-0.51;53.05;99517.84;5111530;28;19927;-66
2022/04/18 02:11:06;;;;;;;;;;;;;;;-0.50;53.36;99509.88;5111949;28;19974;-65
2022/04/18 02:13:35;;;;;;;;;;;;;;;-0.51;53.38;99517.84;5098496;28;19931;-67
2022/04/18 02:16:04;;;;;;;;;;;;;;;-0.53;53.75;99523.22;5111600;28;19927;-65
2022/04/18 02:18:30;;;;;;;;;;;;;;;-0.54;53.61;99518.97;5112543;28;19927;-66
2022/04/18 02:20:55;;;;;;;;;;;;;;;-0.51;53.10;99515.25;5097700;28;20204;-65
2022/04/18 02:23:21;;;;;;;;;;;;;;;-0.47;53.16;99517.38;5092441;28;20429;-66
2022/04/18 02:25:47;;;;;;;;;;;;;;;-0.30;52.45;99520.75;5111472;28;19973;-66
2022/04/18 02:28:14;;;;;;;;;;;;;;;-0.05;52.12;99520.75;5082983;28;20380;-66
2022/04/18 02:30:46;;;;;;;;;;;;;;;0.20;51.16;99524.09;5112865;28;19962;-65
2022/04/18 02:33:12;;;;;;;;;;;;;;;0.39;50.67;99518.53;5099322;28;20474;-66
2022/04/18 02:35:38;;;;;;;;;;;;;;;0.60;50.72;99522.38;5111349;28;20393;-66
2022/04/18 02:38:04;;;;;;;;;;;;;;;0.76;49.71;99524.06;5085730;28;20285;-67
2022/04/18 02:40:41;;;;;;;;;;;;;;;0.94;49.19;99516.00;5090596;28;19970;-65
2022/04/18 02:43:07;;;;;;;;;;;;;;;1.13;49.09;99510.34;5100188;28;20335;-67
2022/04/18 02:45:34;;;;;;;;;;;;;;;1.26;49.06;99517.59;5099664;28;19935;-65
2022/04/18 02:48:20;;;;;;;;;;;;;;;1.43;48.24;99513.88;5100844;28;19969;-65
2022/04/18 02:50:49;;;;;;;;;;;;;;;1.57;48.20;99514.91;5094021;28;19928;-66
2022/04/18 02:53:17;;;;;;;;;;;;;;;1.77;47.13;99516.06;5086260;28;19935;-65
2022/04/18 02:55:56;;;;;;;;;;;;;;;1.95;46.83;99517.53;5090893;28;20304;-65
2022/04/18 02:58:22;;;;;;;;;;;;;;;2.01;46.45;99519.44;5089783;28;19928;-66
2022/04/18 03:00:49;;;;;;;;;;;;;;;2.14;46.08;99522.22;5070363;28;19962;-65
2022/04/18 03:03:15;;;;;;;;;;;;;;;2.26;45.72;99526.03;5088637;28;19966;-65
2022/04/18 03:05:41;;;;;;;;;;;;;;;2.42;45.50;99516.38;5093596;28;19924;-64
2022/04/18 03:08:08;;;;;;;;;;;;;;;2.58;45.08;99520.59;5104859;28;19932;-66
2022/04/18 03:13:25;;;;;;;;;;;;;;;2.80;44.58;99506.59;5101045;28;20409;-65
2022/04/18 03:15:51;;;;;;;;;;;;;;;2.85;44.50;99511.25;5110887;28;20023;-66
2022/04/18 03:18:17;;;;;;;;;;;;;;;3.06;44.48;99507.84;5102542;28;19928;-64
2022/04/18 03:20:43;;;;;;;;;;;;;;;3.11;43.85;99516.78;5112301;28;20420;-64
2022/04/18 03:23:10;;;;;;;;;;;;;;;3.07;44.22;99520.78;5104688;28;19933;-66
2022/04/18 03:25:59;;;;;;;;;;;;;;;3.03;44.42;99514.28;5070366;28;19938;-65
2022/04/18 03:28:32;;;;;;;;;;;;;;;3.22;43.66;99515.50;5077080;28;19928;-66
2022/04/18 03:30:58;;;;;;;;;;;;;;;3.25;44.00;99512.50;5110773;28;20345;-65
2022/04/18 03:33:24;;;;;;;;;;;;;;;3.41;43.55;99517.50;5094678;28;19932;-65
2022/04/18 03:41:18;;;;;;;;;;;;;;;3.84;41.94;99522.69;5092537;28;19947;-66
2022/04/18 03:43:43;;;;;;;;;;;;;;;3.93;41.55;99517.31;5107266;28;19931;-65
2022/04/18 03:46:09;;;;;;;;;;;;;;;4.30;41.60;99509.06;5116037;28;20336;-64
2022/04/18 03:48:34;;;;;;;;;;;;;;;4.46;40.84;99507.13;5107427;28;19966;-64
2022/04/18 03:51:00;;;;;;;;;;;;;;;4.54;40.52;99509.59;5114414;28;19924;-64
2022/04/18 03:53:27;;;;;;;;;;;;;;;4.51;39.83;99512.63;5109745;28;20466;-66
2022/04/18 03:55:53;;;;;;;;;;;;;;;4.63;40.47;99512.88;5094034;28;19923;-64
2022/04/18 03:58:39;;;;;;;;;;;;;;;4.66;39.43;99510.66;5103397;27;19928;-63
2022/04/18 04:01:06;;;;;;;;;;;;;;;4.78;39.23;99505.66;5075440;28;19927;-65
2022/04/18 04:03:31;;;;;;;;;;;;;;;4.90;38.89;99506.69;5101480;27;20361;-65
2022/04/18 04:05:57;;;;;;;;;;;;;;;5.01;38.65;99502.69;5116242;27;19930;-64
2022/04/18 04:08:23;;;;;;;;;;;;;;;5.17;38.75;99504.13;5095919;27;20020;-64
2022/04/18 04:10:51;;;;;;;;;;;;;;;5.29;38.15;99507.00;5112605;28;20026;-66
2022/04/18 04:13:18;;;;;;;;;;;;;;;5.40;38.16;99514.28;5099194;28;19927;-66
2022/04/18 04:15:44;;;;;;;;;;;;;;;5.46;37.71;99513.50;5112576;28;19980;-65
2022/04/18 04:18:17;;;;;;;;;;;;;;;5.48;38.10;99519.38;5104893;27;19924;-65
2022/04/18 04:20:44;;;;;;;;;;;;;;;5.59;37.55;99513.50;5115840;27;19973;-64
2022/04/18 04:23:11;;;;;;;;;;;;;;;5.74;37.81;99512.50;5115786;27;19953;-65
2022/04/18 04:25:56;;;;;;;;;;;;;;;5.82;37.67;99514.91;5037275;28;20329;-65
2022/04/18 04:28:34;;;;;;;;;;;;;;;6.04;37.01;99511.09;5066508;28;20050;-67
2022/04/18 04:31:02;;;;;;;;;;;;;;;6.23;37.05;99506.78;5074896;28;20452;-72
2022/04/18 04:33:30;;;;;;;;;;;;;;;6.32;37.52;99507.38;5056305;28;19928;-63
2022/04/18 04:35:58;;;;;;;;;;;;;;;6.25;37.28;99504.78;5070735;28;20031;-64
2022/04/18 04:38:24;;;;;;;;;;;;;;;6.05;37.74;99502.16;5063847;28;19932;-64
2022/04/18 04:40:55;;;;;;;;;;;;;;;6.00;37.62;99503.78;5074265;28;19924;-67
2022/04/18 04:43:34;;;;;;;;;;;;;;;5.92;38.00;99510.06;5055212;28;19932;-66
2022/04/18 04:46:02;;;;;;;;;;;;;;;5.79;38.03;99505.59;5091678;28;19924;-67
2022/04/18 04:48:31;;;;;;;;;;;;;;;5.89;38.32;99505.22;5057898;28;19928;-67
2022/04/18 04:51:03;;;;;;;;;;;;;;;5.97;38.32;99505.03;5043049;28;19932;-67
2022/04/18 04:53:29;;;;;;;;;;;;;;;5.95;39.33;99504.44;5048810;28;19928;-66
2022/04/18 04:55:56;;;;;;;;;;;;;;;6.00;38.96;99509.88;5076659;28;20233;-67
2022/04/18 04:58:22;;;;;;;;;;;;;;;6.00;38.26;99506.41;5105019;28;19951;-65
2022/04/18 05:00:52;;;;;;;;;;;;;;;5.87;38.90;99504.59;5074394;28;19920;-67
2022/04/18 05:03:34;;;;;;;;;;;;;;;5.57;40.40;99502.38;5096031;28;20316;-67
2022/04/18 05:06:00;;;;;;;;;;;;;;;5.36;41.04;99499.94;5110964;28;19923;-65
2022/04/18 05:08:39;;;;;;;;;;;;;;;5.29;41.59;99504.38;5087631;28;20004;-68
2022/04/18 05:11:07;;;;;;;;;;;;;;;5.39;41.17;99507.44;5072176;28;19924;-65
2022/04/18 05:13:45;;;;;;;;;;;;;;;5.49;41.40;99513.09;5097746;28;20245;-65
2022/04/18 05:16:12;;;;;;;;;;;;;;;5.57;41.64;99504.19;5092109;28;19930;-66
2022/04/18 05:18:57;;;;;;;;;;;;;;;5.51;41.84;99505.81;5092076;28;19933;-64
2022/04/18 05:21:23;;;;;;;;;;;;;;;5.53;41.92;99516.94;5091966;28;19924;-65
2022/04/18 05:23:51;;;;;;;;;;;;;;;5.41;42.59;99511.47;5106036;28;19927;-66
2022/04/18 05:26:17;;;;;;;;;;;;;;;5.39;42.65;99500.34;5112149;28;20355;-66
2022/04/18 05:28:44;;;;;;;;;;;;;;;5.51;42.55;99503.19;5095345;28;19939;-65
2022/04/18 05:31:10;;;;;;;;;;;;;;;5.46;43.29;99503.78;5094679;28;20386;-64
2022/04/18 05:33:38;;;;;;;;;;;;;;;5.38;43.45;99501.38;5090750;28;19927;-62
2022/04/18 05:36:23;;;;;;;;;;;;;;;5.32;44.05;99498.72;5107354;28;20492;-65
2022/04/18 05:38:49;;;;;;;;;;;;;;;5.35;43.76;99503.56;5108630;28;19928;-65
2022/04/18 05:41:31;;;;;;;;;;;;;;;5.37;44.35;99504.97;5085297;28;20026;-64
2022/04/18 05:43:57;;;;;;;;;;;;;;;5.33;44.32;99503.78;5104426;28;20054;-66
2022/04/18 05:46:28;;;;;;;;;;;;;;;5.21;44.84;99506.19;5099730;28;19934;-63
2022/04/18 05:48:57;;;;;;;;;;;;;;;5.20;44.66;99507.16;5105232;28;19928;-64
2022/04/18 05:51:23;;;;;;;;;;;;;;;5.21;45.04;99514.06;5072909;28;19931;-63
2022/04/18 05:53:48;;;;;;;;;;;;;;;5.29;45.35;99499.09;5096375;28;19931;-63
2022/04/18 05:56:34;;;;;;;;;;;;;;;5.28;44.69;99502.75;5111237;28;19924;-63
2022/04/18 05:59:10;;;;;;;;;;;;;;;5.30;45.64;99503.38;5097593;28;19935;-66
2022/04/18 06:01:42;;;;;;;;;;;;;;;5.34;45.64;99504.59;5078845;28;19931;-61
2022/04/18 06:04:13;;;;;;;;;;;;;;;5.37;45.66;99499.72;5102212;28;19935;-60
2022/04/18 06:06:46;;;;;;;;;;;;;;;5.40;44.80;99509.03;5106932;28;20159;-61
2022/04/18 06:09:12;;;;;;;;;;;;;;;5.42;45.13;99499.13;5110628;28;19928;-62
2022/04/18 06:11:37;;;;;;;;;;;;;;;5.45;45.00;99496.09;5076298;28;20374;-60
2022/04/18 06:14:08;;;;;;;;;;;;;;;5.55;45.36;99500.97;5086433;28;20414;-62
2022/04/18 06:16:38;;;;;;;;;;;;;;;5.62;44.89;99494.69;5088135;28;19924;-61
2022/04/18 06:19:04;;;;;;;;;;;;;;;5.71;44.61;99503.19;5100351;28;19984;-61
2022/04/18 06:21:30;;;;;;;;;;;;;;;5.70;43.42;99506.81;5072123;28;19957;-61
2022/04/18 06:23:57;;;;;;;;;;;;;;;5.70;44.04;99502.38;5102477;28;20285;-62
2022/04/18 06:26:47;;;;;;;;;;;;;;;5.84;43.29;99494.47;5067170;28;19924;-61
2022/04/18 06:29:13;;;;;;;;;;;;;;;5.85;43.00;99498.72;5086930;28;19929;-61
2022/04/18 06:31:46;;;;;;;;;;;;;;;5.83;43.45;99500.75;5076714;28;20030;-61
2022/04/18 06:34:11;;;;;;;;;;;;;;;5.85;43.27;99493.47;5106603;28;19934;-62
2022/04/18 06:36:39;;;;;;;;;;;;;;;5.92;43.60;99499.53;5107219;28;19939;-61
2022/04/18 06:39:40;;;;;;;;;;;;;;;5.92;43.63;99502.16;5048309;28;19940;-60
2022/04/18 06:42:22;;;;;;;;;;;;;;;5.90;42.96;99491.03;5070496;28;19928;-58
2022/04/18 06:44:52;;;;;;;;;;;;;;;5.94;42.89;99497.53;5092910;28;19924;-59
2022/04/18 06:47:19;;;;;;;;;;;;;;;5.99;43.82;99504.81;5079709;28;19951;-62
2022/04/18 06:50:12;;;;;;;;;;;;;;;6.11;42.97;99492.66;5087212;28;19928;-61
2022/04/18 06:52:58;;;;;;;;;;;;;;;6.16;42.71;99513.09;5085291;28;19928;-61
2022/04/18 06:55:26;;;;;;;;;;;;;;;6.22;43.31;99507.81;5085607;28;19925;-63
2022/04/18 06:57:52;;;;;;;;;;;;;;;6.27;42.54;99504.56;5079537;28;19927;-66
2022/04/18 07:00:18;;;;;;;;;;;;;;;6.29;42.69;99513.06;5110193;28;19931;-62
2022/04/18 07:02:45;;;;;;;;;;;;;;;6.30;42.17;99501.53;5104142;28;20413;-61
2022/04/18 07:05:10;;;;;;;;;;;;;;;6.36;42.38;99501.50;5067595;28;20398;-62
2022/04/18 07:07:36;;;;;;;;;;;;;;;6.51;41.93;99493.34;5077691;28;19927;-61
2022/04/18 07:10:04;;;;;;;;;;;;;;;6.62;41.72;99502.44;5085768;28;19925;-66
2022/04/18 07:12:29;;;;;;;;;;;;;;;6.66;41.70;99505.47;5069646;28;19928;-65
2022/04/18 07:14:58;;;;;;;;;;;;;;;6.56;41.40;99488.28;5072744;28;19932;-69
2022/04/18 07:17:25;;;;;;;;;;;;;;;6.55;40.79;99491.91;5073966;28;19928;-63
2022/04/18 07:19:51;;;;;;;;;;;;;;;6.52;40.08;99494.97;5071766;28;19978;-61
2022/04/18 07:22:19;;;;;;;;;;;;;;;6.59;40.36;99498.41;5074271;28;19968;-63
2022/04/18 07:24:46;;;;;;;;;;;;;;;6.66;40.25;99500.19;5073820;28;20286;-61
2022/04/18 07:27:13;;;;;;;;;;;;;;;6.67;40.47;99497.34;5073857;28;20017;-61
2022/04/18 07:29:45;;;;;;;;;;;;;;;6.70;40.34;99490.84;5112880;28;19936;-62
2022/04/18 07:32:11;;;;;;;;;;;;;;;6.71;40.09;99489.84;5095065;28;20428;-62
2022/04/18 07:34:37;;;;;;;;;;;;;;;6.67;39.14;99491.25;5112719;28;19934;-62
2022/04/18 07:37:06;;;;;;;;;;;;;;;6.63;39.63;99479.53;5112270;28;19928;-63
2022/04/18 07:39:32;;;;;;;;;;;;;;;6.66;39.33;99485.19;5113560;28;20428;-65
2022/04/18 07:41:58;;;;;;;;;;;;;;;6.66;39.75;99489.66;5106197;28;20026;-63
2022/04/18 07:44:27;;;;;;;;;;;;;;;6.66;38.01;99487.81;5080479;28;20030;-62
2022/04/18 07:46:54;;;;;;;;;;;;;;;6.71;38.63;99497.75;5069529;28;19928;-63
2022/04/18 07:49:29;;;;;;;;;;;;;;;6.69;39.27;99484.78;5091957;28;19928;-62
2022/04/18 07:51:58;;;;;;;;;;;;;;;6.70;36.93;99496.13;5079946;28;19927;-64
2022/04/18 07:54:36;;;;;;;;;;;;;;;6.64;37.18;99496.94;5071722;28;19928;-62
2022/04/18 07:57:02;;;;;;;;;;;;;;;6.61;37.19;99492.91;5071647;28;20385;-65
2022/04/18 07:59:44;;;;;;;;;;;;;;;6.51;37.42;99482.81;5070559;28;19928;-62
2022/04/18 08:02:10;;;;;;;;;;;;;;;6.55;37.52;99493.75;5070139;28;19928;-62
2022/04/18 08:04:54;;;;;;;;;;;;;;;6.46;37.12;99490.53;5112527;28;20354;-62
2022/04/18 08:07:30;;;;;;;;;;;;;;;6.57;37.02;99487.25;5111336;28;19927;-63
2022/04/18 08:09:57;;;;;;;;;;;;;;;6.69;37.33;99486.59;5110567;28;19924;-62
2022/04/18 08:12:22;;;;;;;;;;;;;;;6.68;36.53;99477.09;5108993;28;19927;-61
2022/04/18 08:15:08;;;;;;;;;;;;;;;6.73;35.75;99467.53;5111330;28;19924;-61
2022/04/18 08:17:34;;;;;;;;;;;;;;;6.79;37.26;99471.16;5076339;28;20423;-61
2022/04/18 08:20:02;;;;;;;;;;;;;;;6.85;36.59;99472.13;5111449;28;19931;-61
2022/04/18 08:22:29;;;;;;;;;;;;;;;6.94;37.36;99471.69;5111682;28;19965;-62
2022/04/18 08:25:20;;;;;;;;;;;;;;;7.05;36.30;99471.00;5109258;28;19930;-61
2022/04/18 08:28:18;;;;;;;;;;;;;;;7.08;35.97;99464.50;5099653;28;19928;-63
2022/04/18 08:30:44;;;;;;;;;;;;;;;7.06;35.93;99479.75;5110479;28;19934;-62
2022/04/18 08:33:25;;;;;;;;;;;;;;;7.07;35.24;99464.72;5111263;28;19932;-63
2022/04/18 08:35:51;;;;;;;;;;;;;;;7.16;35.74;99458.16;5110378;28;20385;-62
2022/04/18 08:38:17;;;;;;;;;;;;;;;7.30;35.07;99458.91;5113062;28;19928;-62
2022/04/18 08:41:10;;;;;;;;;;;;;;;7.33;35.39;99448.72;5108415;28;20008;-60
2022/04/18 08:43:37;;;;;;;;;;;;;;;7.44;35.95;99461.22;5092108;28;19928;-62
2022/04/18 08:46:05;;;;;;;;;;;;;;;7.50;34.79;99460.34;5074124;28;19923;-64
2022/04/18 08:53:59;;;;;;;;;;;;;;;7.41;35.23;99435.28;5093075;28;20549;-62
2022/04/18 08:56:25;;;;;;;;;;;;;;;7.46;35.88;99443.31;5090988;28;19972;-62
2022/04/18 08:58:51;;;;;;;;;;;;;;;7.55;35.40;99448.34;5093341;28;19963;-63
2022/04/18 09:01:17;;;;;;;;;;;;;;;7.58;34.64;99443.44;5091939;28;19924;-63
2022/04/18 09:03:45;;;;;;;;;;;;;;;7.55;34.72;99456.25;5109270;28;20530;-61
2022/04/18 09:06:12;;;;;;;;;;;;;;;7.67;35.15;99430.78;5058491;28;19924;-61
2022/04/18 09:08:52;;;;;;;;;;;;;;;7.65;34.10;99424.94;5092865;28;20066;-62
2022/04/18 09:11:28;;;;;;;;;;;;;;;7.69;34.66;99431.38;5092713;28;19924;-62
2022/04/18 09:13:57;;;;;;;;;;;;;;;7.80;34.17;99435.94;5094888;28;19951;-61
2022/04/18 09:16:27;;;;;;;;;;;;;;;7.72;33.43;99438.84;5111277;28;19930;-62
2022/04/18 09:19:12;;;;;;;;;;;;;;;7.84;33.81;99418.63;5110203;28;20437;-63
2022/04/18 09:21:56;;;;;;;;;;;;;;;7.94;33.60;99412.84;5110215;28;19924;-61
2022/04/18 09:24:31;;;;;;;;;;;;;;;8.00;34.06;99403.25;5109932;28;19927;-62
2022/04/18 09:27:13;;;;;;;;;;;;;;;8.07;33.42;99406.63;5077175;28;19945;-62
2022/04/18 09:29:41;;;;;;;;;;;;;;;8.07;33.83;99407.44;5110805;28;19973;-63
2022/04/18 09:32:11;;;;;;;;;;;;;;;8.24;33.85;99410.28;5109454;28;19924;-62
2022/04/18 09:34:58;;;;;;;;;;;;;;;8.35;33.21;99411.38;5090595;28;19927;-61
2022/04/18 09:37:24;;;;;;;;;;;;;;;8.34;33.66;99410.56;5076455;28;19978;-62
2022/04/18 09:39:53;;;;;;;;;;;;;;;8.26;32.94;99402.13;5092223;28;20384;-62
2022/04/18 09:42:20;;;;;;;;;;;;;;;8.09;33.35;99415.94;5109130;28;19932;-61
2022/04/18 09:45:08;;;;;;;;;;;;;;;8.00;33.46;99395.31;5112430;28;19924;-62
2022/04/18 09:47:43;;;;;;;;;;;;;;;8.05;33.50;99403.41;5110193;28;20396;-60
2022/04/18 09:53:20;;;;;;;;;;;;;;;8.13;33.75;99395.19;5110739;28;19927;-61
2022/04/18 09:55:47;;;;;;;;;;;;;;;8.23;33.40;99390.19;5110655;28;20014;-63
2022/04/18 09:58:12;;;;;;;;;;;;;;;8.31;33.79;99405.72;5110647;28;20392;-61
2022/04/18 10:00:38;;;;;;;;;;;;;;;8.39;33.20;99399.38;5109346;28;19938;-63
2022/04/18 10:03:04;;;;;;;;;;;;;;;8.34;33.22;99391.28;5110122;28;19936;-63
2022/04/18 10:05:29;;;;;;;;;;;;;;;8.46;33.49;99386.09;5109524;28;19930;-65
2022/04/18 10:07:56;;;;;;;;;;;;;;;8.58;33.69;99386.94;5109005;28;19927;-67
2022/04/18 10:10:22;;;;;;;;;;;;;;;8.63;33.98;99392.34;5106632;28;19924;-66
2022/04/18 10:12:49;;;;;;;;;;;;;;;8.69;33.86;99380.09;5108348;28;20368;-68
2022/04/18 10:15:14;;;;;;;;;;;;;;;8.79;33.29;99378.47;5109455;28;19992;-67
2022/04/18 10:17:40;;;;;;;;;;;;;;;8.84;33.54;99391.03;5109818;28;20416;-66
2022/04/18 10:20:14;;;;;;;;;;;;;;;8.81;33.57;99379.06;5107350;28;20303;-66
2022/04/18 10:22:43;;;;;;;;;;;;;;;8.95;33.01;99382.34;5109488;28;19940;-68
2022/04/18 10:25:10;;;;;;;;;;;;;;;9.03;32.71;99376.72;5108144;28;19978;-66
2022/04/18 10:27:55;;;;;;;;;;;;;;;9.07;32.24;99387.66;5109033;28;19928;-67
2022/04/18 10:30:22;;;;;;;;;;;;;;;9.21;32.00;99378.47;5111923;28;19958;-64
2022/04/18 10:32:49;;;;;;;;;;;;;;;9.24;31.69;99374.56;5051781;28;20393;-64
2022/04/18 10:35:15;;;;;;;;;;;;;;;9.35;31.79;99365.00;5107444;28;19931;-65
2022/04/18 10:37:41;;;;;;;;;;;;;;;9.33;32.02;99371.34;5090215;28;19928;-65
2022/04/18 10:40:07;;;;;;;;;;;;;;;9.29;31.73;99378.16;5107150;28;20022;-66
2022/04/18 10:42:34;;;;;;;;;;;;;;;9.29;31.82;99378.16;5089702;28;20022;-65
2022/04/18 10:45:09;;;;;;;;;;;;;;;9.32;31.23;99380.34;5110690;28;20017;-65
2022/04/18 10:47:53;;;;;;;;;;;;;;;9.35;31.45;99373.75;5105627;28;19934;-64
2022/04/18 10:50:20;;;;;;;;;;;;;;;9.42;32.23;99373.66;5107128;28;20289;-65
2022/04/18 10:53:05;;;;;;;;;;;;;;;9.38;31.89;99368.00;5104801;28;19935;-65
2022/04/18 10:55:31;;;;;;;;;;;;;;;9.47;31.08;99363.16;5109023;28;19930;-64
2022/04/18 10:58:13;;;;;;;;;;;;;;;9.50;31.27;99368.00;5108517;28;19924;-64
2022/04/18 11:01:05;;;;;;;;;;;;;;;9.43;31.11;99381.34;5091862;28;20226;-65
2022/04/18 11:03:39;;;;;;;;;;;;;;;9.45;31.02;99370.56;5108452;28;20026;-65
2022/04/18 11:06:09;;;;;;;;;;;;;;;9.50;31.59;99363.53;5109378;28;19931;-64
2022/04/18 11:08:35;;;;;;;;;;;;;;;9.57;31.70;99362.63;5108107;28;19971;-65
2022/04/18 11:11:07;;;;;;;;;;;;;;;9.58;31.19;99365.00;5107565;28;20390;-66
2022/04/18 11:13:33;;;;;;;;;;;;;;;9.67;31.43;99353.03;5106836;28;19935;-63
2022/04/18 11:16:18;;;;;;;;;;;;;;;9.78;30.71;99357.50;5110394;28;19924;-65
2022/04/18 11:19:03;;;;;;;;;;;;;;;9.83;31.26;99363.97;5107995;28;20427;-64
2022/04/18 11:22:01;;;;;;;;;;;;;;;9.81;30.64;99363.38;5110350;28;19924;-62
2022/04/18 11:24:36;;;;;;;;;;;;;;;9.81;30.95;99364.19;5109106;28;20014;-67
2022/04/18 11:27:02;;;;;;;;;;;;;;;9.81;30.51;99358.09;5110279;28;19930;-62
2022/04/18 11:29:29;;;;;;;;;;;;;;;9.85;30.40;99341.50;5110486;28;19928;-62
2022/04/18 11:31:54;;;;;;;;;;;;;;;9.76;31.22;99338.44;5107398;28;20175;-61
2022/04/18 11:34:20;;;;;;;;;;;;;;;9.89;31.01;99355.09;5109566;28;19957;-59
2022/04/18 11:36:45;;;;;;;;;;;;;;;9.77;30.97;99352.47;5108222;28;20372;-61
2022/04/18 11:39:11;;;;;;;;;;;;;;;9.80;30.92;99349.34;5073660;28;19928;-60
2022/04/18 11:41:36;;;;;;;;;;;;;;;9.80;29.60;99348.56;5109804;28;20400;-61
2022/04/18 11:44:02;;;;;;;;;;;;;;;9.74;29.32;99351.09;5106884;28;20014;-60
2022/04/18 11:46:28;;;;;;;;;;;;;;;9.73;30.07;99346.81;5109327;28;20345;-62
2022/04/18 11:48:54;;;;;;;;;;;;;;;9.75;30.80;99330.72;5108955;28;20026;-61
2022/04/18 11:51:41;;;;;;;;;;;;;;;9.63;29.37;99349.25;5109682;28;20463;-61
2022/04/18 11:54:07;;;;;;;;;;;;;;;9.60;29.52;99333.84;5105929;28;19927;-62
2022/04/18 11:56:32;;;;;;;;;;;;;;;9.64;29.31;99326.22;5108807;28;19931;-63
2022/04/18 11:59:04;;;;;;;;;;;;;;;9.65;29.36;99330.50;5108782;28;19973;-63
2022/04/18 12:06:59;;;;;;;;;;;;;;;9.80;31.16;99322.09;5112806;28;19973;-63
2022/04/18 12:09:25;;;;;;;;;;;;;;;9.73;30.71;99325.63;5110963;28;19942;-63
2022/04/18 12:11:51;;;;;;;;;;;;;;;9.76;31.10;99330.50;5060606;28;19923;-61
2022/04/18 12:14:18;;;;;;;;;;;;;;;9.70;30.91;99322.66;5092390;28;19928;-61
2022/04/18 12:16:44;;;;;;;;;;;;;;;9.62;30.79;99315.91;5092779;28;19927;-63
2022/04/18 12:19:15;;;;;;;;;;;;;;;9.70;32.57;99298.84;5092306;28;19950;-64
2022/04/18 12:21:41;;;;;;;;;;;;;;;9.75;30.67;99305.03;5092858;28;19924;-62
2022/04/18 12:24:08;;;;;;;;;;;;;;;9.79;31.57;99318.59;5110713;28;19928;-61
2022/04/18 12:26:34;;;;;;;;;;;;;;;9.74;30.63;99308.72;5109573;28;19924;-60
2022/04/18 12:29:06;;;;;;;;;;;;;;;9.73;30.46;99295.72;5111461;28;19928;-63
2022/04/18 12:31:32;;;;;;;;;;;;;;;9.77;30.85;99299.53;5110430;28;19968;-61
2022/04/18 12:33:58;;;;;;;;;;;;;;;9.73;30.18;99288.56;5109414;28;19928;-65
2022/04/18 12:36:27;;;;;;;;;;;;;;;9.69;30.50;99292.75;5110829;28;19984;-64
2022/04/18 12:38:53;;;;;;;;;;;;;;;9.68;30.89;99300.94;5109037;28;19928;-63
2022/04/18 12:41:35;;;;;;;;;;;;;;;9.60;30.03;99288.84;5093570;28;19930;-62
2022/04/18 12:44:01;;;;;;;;;;;;;;;9.59;30.89;99299.66;5111472;28;19928;-62
2022/04/18 12:46:30;;;;;;;;;;;;;;;9.55;30.46;99307.25;5111600;28;20381;-61
2022/04/18 12:48:56;;;;;;;;;;;;;;;9.53;30.96;99272.31;5110400;28;20348;-61
2022/04/18 12:51:32;;;;;;;;;;;;;;;9.46;30.87;99285.63;5112480;28;19931;-61
2022/04/18 12:53:58;;;;;;;;;;;;;;;9.46;29.98;99280.34;5108965;28;20069;-61
2022/04/18 12:56:24;;;;;;;;;;;;;;;9.44;30.34;99289.56;5111824;28;20030;-61
2022/04/18 12:59:01;;;;;;;;;;;;;;;9.37;30.33;99296.81;5091869;28;20024;-62
2022/04/18 13:01:34;;;;;;;;;;;;;;;9.30;30.61;99279.22;5074923;28;20043;-61
2022/04/18 13:04:00;;;;;;;;;;;;;;;9.39;31.07;99294.75;5110360;28;19972;-60
2022/04/18 13:06:27;;;;;;;;;;;;;;;9.44;30.17;99282.44;5092996;28;20246;-60
2022/04/18 13:09:05;;;;;;;;;;;;;;;9.40;30.41;99270.69;5109983;28;19934;-62
2022/04/18 13:11:37;;;;;;;;;;;;;;;9.39;30.69;99269.09;5110819;28;19930;-65
2022/04/18 13:14:03;;;;;;;;;;;;;;;9.43;30.61;99266.78;5108525;28;19927;-61
2022/04/18 13:16:31;;;;;;;;;;;;;;;9.33;29.65;99291.19;5108903;28;19959;-60
2022/04/18 13:19:06;;;;;;;;;;;;;;;9.30;30.46;99273.94;5058795;28;20383;-64
2022/04/18 13:21:32;;;;;;;;;;;;;;;9.28;30.94;99272.56;5108268;28;20330;-62
2022/04/18 13:23:58;;;;;;;;;;;;;;;9.23;30.27;99283.81;5106499;28;19980;-63
2022/04/18 13:26:24;;;;;;;;;;;;;;;9.24;30.21;99268.78;5107282;28;20502;-64
2022/04/18 13:28:50;;;;;;;;;;;;;;;9.26;30.06;99269.34;5107088;28;20498;-65
2022/04/18 13:31:15;;;;;;;;;;;;;;;9.26;30.15;99277.25;5105733;28;19931;-64
2022/04/18 13:33:41;;;;;;;;;;;;;;;9.28;29.77;99265.41;5109259;28;20319;-62